sensor_id;sensor_type;location;lat;lon;timestamp;pressure;altitude;pressure_sealevel;temperature;humidity
13015;BME280;6573;57.696;11.950;2023-12-04T00:01:01;101881.66;;;0.05;100.00
13015;BME280;6573;57.696;11.950;2023-12-04T00:03:30;101903.91;;;0.32;100.00
13015;BME280;6573;57.696;11.950;2023-12-04T00:06:06;101904.09;;;0.20;100.00
13015;BME280;6573;57.696;11.950;2023-12-04T00:08:38;101912.28;;;0.28;100.00
13015;BME280;6573;57.696;11.950;2023-12-04T00:11:15;101900.91;;;0.10;100.00
13015;BME280;6573;57.696;11.950;2023-12-04T00:13:46;101917.47;;;0.13;100.00
13015;BME280;6573;57.696;11.950;2023-12-04T00:16:15;101855.41;;;-0.18;100.00
13015;BME280;6573;57.696;11.950;2023-12-04T00:18:44;101896.53;;;0.09;100.00
13015;BME280;6573;57.696;11.950;2023-12-04T00:21:17;101903.41;;;0.08;100.00
13015;BME280;6573;57.696;11.950;2023-12-04T00:23:47;101856.69;;;-0.10;100.00
13015;BME280;6573;57.696;11.950;2023-12-04T00:26:19;101909.38;;;0.38;100.00
13015;BME280;6573;57.696;11.950;2023-12-04T00:28:48;101841.53;;;-0.04;100.00
13015;BME280;6573;57.696;11.950;2023-12-04T00:31:20;101898.38;;;0.26;100.00
13015;BME280;6573;57.696;11.950;2023-12-04T00:33:58;101909.81;;;0.15;100.00
13015;BME280;6573;57.696;11.950;2023-12-04T00:36:27;101896.81;;;-0.02;100.00
13015;BME280;6573;57.696;11.950;2023-12-04T00:39:00;101894.84;;;0.09;100.00
13015;BME280;6573;57.696;11.950;2023-12-04T00:41:33;101895.16;;;0.30;100.00
13015;BME280;6573;57.696;11.950;2023-12-04T00:44:04;101857.56;;;0.06;100.00
13015;BME280;6573;57.696;11.950;2023-12-04T00:47:00;101860.97;;;0.05;100.00
13015;BME280;6573;57.696;11.950;2023-12-04T00:49:31;101901.78;;;0.25;100.00
13015;BME280;6573;57.696;11.950;2023-12-04T00:52:08;101896.25;;;0.19;100.00
13015;BME280;6573;57.696;11.950;2023-12-04T00:54:52;101898.53;;;0.29;100.00
13015;BME280;6573;57.696;11.950;2023-12-04T00:57:41;101880.66;;;0.17;100.00
13015;BME280;6573;57.696;11.950;2023-12-04T01:00:11;101888.88;;;0.41;100.00
13015;BME280;6573;57.696;11.950;2023-12-04T01:02:45;101855.03;;;0.22;100.00
13015;BME280;6573;57.696;11.950;2023-12-04T01:05:18;101888.69;;;0.38;100.00
13015;BME280;6573;57.696;11.950;2023-12-04T01:07:52;101879.97;;;0.36;100.00
13015;BME280;6573;57.696;11.950;2023-12-04T01:10:23;101889.66;;;0.40;100.00
13015;BME280;6573;57.696;11.950;2023-12-04T01:12:57;101883.94;;;0.45;100.00
13015;BME280;6573;57.696;11.950;2023-12-04T01:15:27;101862.44;;;0.46;100.00
13015;BME280;6573;57.696;11.950;2023-12-04T01:17:56;101887.59;;;0.65;100.00
13015;BME280;6573;57.696;11.950;2023-12-04T01:20:28;101886.88;;;0.51;100.00
13015;BME280;6573;57.696;11.950;2023-12-04T01:22:57;101891.16;;;0.51;100.00
13015;BME280;6573;57.696;11.950;2023-12-04T01:25:26;101885.78;;;0.48;100.00
13015;BME280;6573;57.696;11.950;2023-12-04T01:27:58;101874.94;;;0.39;100.00
13015;BME280;6573;57.696;11.950;2023-12-04T01:30:28;101903.13;;;0.49;100.00
13015;BME280;6573;57.696;11.950;2023-12-04T01:32:59;101844.00;;;0.10;100.00
13015;BME280;6573;57.696;11.950;2023-12-04T01:35:28;101780.31;;;-0.19;100.00
13015;BME280;6573;57.696;11.950;2023-12-04T01:37:56;101890.31;;;0.36;100.00
13015;BME280;6573;57.696;11.950;2023-12-04T01:40:26;101860.69;;;0.31;100.00
13015;BME280;6573;57.696;11.950;2023-12-04T01:42:55;101825.91;;;0.10;100.00
13015;BME280;6573;57.696;11.950;2023-12-04T01:45:27;101898.13;;;0.52;100.00
13015;BME280;6573;57.696;11.950;2023-12-04T01:47:57;101879.78;;;0.33;100.00
13015;BME280;6573;57.696;11.950;2023-12-04T01:50:27;101895.66;;;0.39;100.00
13015;BME280;6573;57.696;11.950;2023-12-04T01:52:56;101870.38;;;0.19;100.00
13015;BME280;6573;57.696;11.950;2023-12-04T01:55:28;101799.13;;;-0.22;100.00
13015;BME280;6573;57.696;11.950;2023-12-04T01:58:02;101885.31;;;0.39;100.00
13015;BME280;6573;57.696;11.950;2023-12-04T02:00:48;101866.28;;;0.38;100.00
13015;BME280;6573;57.696;11.950;2023-12-04T02:03:20;101772.19;;;-0.11;100.00
13015;BME280;6573;57.696;11.950;2023-12-04T02:05:51;101857.63;;;0.38;100.00
13015;BME280;6573;57.696;11.950;2023-12-04T02:08:20;101830.13;;;0.40;100.00
13015;BME280;6573;57.696;11.950;2023-12-04T02:10:50;101782.25;;;0.16;100.00
13015;BME280;6573;57.696;11.950;2023-12-04T02:13:20;101801.19;;;0.15;100.00
13015;BME280;6573;57.696;11.950;2023-12-04T02:15:56;101794.03;;;0.11;100.00
13015;BME280;6573;57.696;11.950;2023-12-04T02:18:28;101874.31;;;0.43;100.00
13015;BME280;6573;57.696;11.950;2023-12-04T02:20:57;101828.81;;;0.16;100.00
13015;BME280;6573;57.696;11.950;2023-12-04T02:23:41;101864.97;;;0.30;100.00
13015;BME280;6573;57.696;11.950;2023-12-04T02:26:16;101863.09;;;0.28;100.00
13015;BME280;6573;57.696;11.950;2023-12-04T02:28:55;101862.88;;;0.23;100.00
13015;BME280;6573;57.696;11.950;2023-12-04T02:31:31;101776.81;;;-0.20;100.00
13015;BME280;6573;57.696;11.950;2023-12-04T02:34:07;101858.75;;;0.27;100.00
13015;BME280;6573;57.696;11.950;2023-12-04T02:36:41;101839.34;;;0.19;100.00
13015;BME280;6573;57.696;11.950;2023-12-04T02:39:24;101810.81;;;0.03;100.00
13015;BME280;6573;57.696;11.950;2023-12-04T02:42:00;101833.13;;;0.00;100.00
13015;BME280;6573;57.696;11.950;2023-12-04T02:44:32;101843.28;;;0.12;100.00
13015;BME280;6573;57.696;11.950;2023-12-04T02:47:06;101791.25;;;-0.09;100.00
13015;BME280;6573;57.696;11.950;2023-12-04T02:49:35;101826.47;;;0.20;100.00
13015;BME280;6573;57.696;11.950;2023-12-04T02:52:07;101857.31;;;0.32;100.00
13015;BME280;6573;57.696;11.950;2023-12-04T02:54:38;101820.75;;;0.26;100.00
13015;BME280;6573;57.696;11.950;2023-12-04T02:57:12;101820.13;;;0.46;100.00
13015;BME280;6573;57.696;11.950;2023-12-04T02:59:44;101834.53;;;0.57;100.00
13015;BME280;6573;57.696;11.950;2023-12-04T03:02:13;101742.06;;;-0.25;100.00
13015;BME280;6573;57.696;11.950;2023-12-04T03:04:45;101814.13;;;0.15;100.00
13015;BME280;6573;57.696;11.950;2023-12-04T03:07:19;101846.25;;;0.34;100.00
13015;BME280;6573;57.696;11.950;2023-12-04T03:09:51;101727.69;;;-0.36;100.00
13015;BME280;6573;57.696;11.950;2023-12-04T03:12:24;101821.47;;;0.23;100.00
13015;BME280;6573;57.696;11.950;2023-12-04T03:14:58;101849.69;;;0.35;100.00
13015;BME280;6573;57.696;11.950;2023-12-04T03:17:38;101813.84;;;0.10;100.00
13015;BME280;6573;57.696;11.950;2023-12-04T03:20:11;101746.94;;;-0.31;100.00
13015;BME280;6573;57.696;11.950;2023-12-04T03:22:48;101747.97;;;-0.27;100.00
13015;BME280;6573;57.696;11.950;2023-12-04T03:25:31;101844.69;;;0.22;100.00
13015;BME280;6573;57.696;11.950;2023-12-04T03:28:06;101803.47;;;0.10;100.00
13015;BME280;6573;57.696;11.950;2023-12-04T03:30:36;101823.38;;;0.11;100.00
13015;BME280;6573;57.696;11.950;2023-12-04T03:33:07;101819.69;;;0.22;100.00
13015;BME280;6573;57.696;11.950;2023-12-04T03:35:37;101790.84;;;0.15;100.00
13015;BME280;6573;57.696;11.950;2023-12-04T03:38:07;101836.94;;;0.38;100.00
13015;BME280;6573;57.696;11.950;2023-12-04T03:40:36;101837.09;;;0.41;100.00
13015;BME280;6573;57.696;11.950;2023-12-04T03:46:15;101782.59;;;0.22;100.00
13015;BME280;6573;57.696;11.950;2023-12-04T03:48:48;101799.72;;;0.20;100.00
13015;BME280;6573;57.696;11.950;2023-12-04T03:51:19;101800.53;;;0.35;100.00
13015;BME280;6573;57.696;11.950;2023-12-04T03:53:55;101806.38;;;0.47;100.00
13015;BME280;6573;57.696;11.950;2023-12-04T03:56:26;101830.31;;;0.75;100.00
13015;BME280;6573;57.696;11.950;2023-12-04T03:58:59;101815.41;;;0.87;100.00
13015;BME280;6573;57.696;11.950;2023-12-04T04:01:38;101719.22;;;0.30;100.00
13015;BME280;6573;57.696;11.950;2023-12-04T04:04:18;101811.47;;;0.61;100.00
13015;BME280;6573;57.696;11.950;2023-12-04T04:06:51;101795.34;;;0.67;100.00
13015;BME280;6573;57.696;11.950;2023-12-04T04:09:37;101791.81;;;0.81;100.00
13015;BME280;6573;57.696;11.950;2023-12-04T04:12:20;101807.97;;;0.77;100.00
13015;BME280;6573;57.696;11.950;2023-12-04T04:14:53;101801.50;;;0.85;100.00
13015;BME280;6573;57.696;11.950;2023-12-04T04:17:37;101801.19;;;0.79;100.00
13015;BME280;6573;57.696;11.950;2023-12-04T04:20:13;101774.16;;;0.58;100.00
13015;BME280;6573;57.696;11.950;2023-12-04T04:22:48;101805.72;;;0.67;100.00
13015;BME280;6573;57.696;11.950;2023-12-04T04:25:20;101771.09;;;0.17;100.00
13015;BME280;6573;57.696;11.950;2023-12-04T04:27:53;101807.31;;;0.33;100.00
13015;BME280;6573;57.696;11.950;2023-12-04T04:30:24;101751.09;;;-0.02;100.00
13015;BME280;6573;57.696;11.950;2023-12-04T04:33:12;101718.06;;;-0.08;100.00
13015;BME280;6573;57.696;11.950;2023-12-04T04:35:58;101802.16;;;0.65;100.00
13015;BME280;6573;57.696;11.950;2023-12-04T04:38:43;101766.56;;;0.45;100.00
13015;BME280;6573;57.696;11.950;2023-12-04T04:41:18;101689.03;;;-0.02;100.00
13015;BME280;6573;57.696;11.950;2023-12-04T04:43:48;101790.34;;;0.38;100.00
13015;BME280;6573;57.696;11.950;2023-12-04T04:46:18;101818.44;;;0.46;100.00
13015;BME280;6573;57.696;11.950;2023-12-04T04:48:51;101808.41;;;0.69;100.00
13015;BME280;6573;57.696;11.950;2023-12-04T04:51:25;101814.97;;;0.62;100.00
13015;BME280;6573;57.696;11.950;2023-12-04T04:53:56;101786.63;;;0.33;100.00
13015;BME280;6573;57.696;11.950;2023-12-04T04:56:39;101799.75;;;0.52;100.00
13015;BME280;6573;57.696;11.950;2023-12-04T04:59:23;101828.22;;;0.68;100.00
13015;BME280;6573;57.696;11.950;2023-12-04T05:01:56;101733.66;;;0.26;100.00
13015;BME280;6573;57.696;11.950;2023-12-04T05:04:39;101703.34;;;0.24;100.00
13015;BME280;6573;57.696;11.950;2023-12-04T05:07:11;101803.13;;;0.83;100.00
13015;BME280;6573;57.696;11.950;2023-12-04T05:09:57;101703.91;;;0.18;100.00
13015;BME280;6573;57.696;11.950;2023-12-04T05:12:40;101820.91;;;0.77;100.00
13015;BME280;6573;57.696;11.950;2023-12-04T05:15:24;101764.16;;;0.32;100.00
13015;BME280;6573;57.696;11.950;2023-12-04T05:17:57;101782.25;;;0.48;100.00
13015;BME280;6573;57.696;11.950;2023-12-04T05:21:10;101772.34;;;0.39;100.00
13015;BME280;6573;57.696;11.950;2023-12-04T05:24:06;101823.34;;;0.58;100.00
13015;BME280;6573;57.696;11.950;2023-12-04T05:26:58;101795.53;;;0.38;100.00
13015;BME280;6573;57.696;11.950;2023-12-04T05:29:54;101801.69;;;0.56;100.00
13015;BME280;6573;57.696;11.950;2023-12-04T05:32:31;101723.56;;;0.15;100.00
13015;BME280;6573;57.696;11.950;2023-12-04T05:35:03;101817.22;;;0.56;100.00
13015;BME280;6573;57.696;11.950;2023-12-04T05:37:56;101750.72;;;0.23;100.00
13015;BME280;6573;57.696;11.950;2023-12-04T05:40:52;101804.84;;;0.67;100.00
13015;BME280;6573;57.696;11.950;2023-12-04T05:43:50;101769.97;;;0.60;100.00
13015;BME280;6573;57.696;11.950;2023-12-04T05:46:30;101700.13;;;0.12;100.00
13015;BME280;6573;57.696;11.950;2023-12-04T05:49:14;101636.56;;;-0.32;100.00
13015;BME280;6573;57.696;11.950;2023-12-04T05:51:44;101801.59;;;0.71;100.00
13015;BME280;6573;57.696;11.950;2023-12-04T05:54:18;101748.00;;;0.20;100.00
13015;BME280;6573;57.696;11.950;2023-12-04T05:56:47;101718.38;;;-0.18;100.00
13015;BME280;6573;57.696;11.950;2023-12-04T05:59:25;101776.56;;;0.07;100.00
13015;BME280;6573;57.696;11.950;2023-12-04T06:01:54;101774.78;;;0.06;100.00
13015;BME280;6573;57.696;11.950;2023-12-04T06:04:24;101819.28;;;0.31;100.00
13015;BME280;6573;57.696;11.950;2023-12-04T06:06:57;101780.72;;;0.19;100.00
13015;BME280;6573;57.696;11.950;2023-12-04T06:09:30;101810.75;;;0.32;100.00
13015;BME280;6573;57.696;11.950;2023-12-04T06:12:01;101808.63;;;0.41;100.00
13015;BME280;6573;57.696;11.950;2023-12-04T06:14:44;101768.50;;;0.17;100.00
13015;BME280;6573;57.696;11.950;2023-12-04T06:17:23;101798.03;;;0.36;100.00
13015;BME280;6573;57.696;11.950;2023-12-04T06:20:18;101808.94;;;0.31;100.00
13015;BME280;6573;57.696;11.950;2023-12-04T06:22:48;101712.59;;;-0.12;100.00
13015;BME280;6573;57.696;11.950;2023-12-04T06:25:20;101783.06;;;0.31;100.00
13015;BME280;6573;57.696;11.950;2023-12-04T06:27:50;101763.03;;;0.27;100.00
13015;BME280;6573;57.696;11.950;2023-12-04T06:30:20;101747.16;;;0.05;100.00
13015;BME280;6573;57.696;11.950;2023-12-04T06:32:49;101788.25;;;0.31;100.00
13015;BME280;6573;57.696;11.950;2023-12-04T06:35:20;101763.81;;;0.26;100.00
13015;BME280;6573;57.696;11.950;2023-12-04T06:37:53;101784.06;;;0.49;100.00
13015;BME280;6573;57.696;11.950;2023-12-04T06:40:39;101674.00;;;-0.25;100.00
13015;BME280;6573;57.696;11.950;2023-12-04T06:43:28;101670.81;;;-0.36;100.00
13015;BME280;6573;57.696;11.950;2023-12-04T06:46:01;101786.47;;;0.30;100.00
13015;BME280;6573;57.696;11.950;2023-12-04T06:48:47;101774.91;;;0.23;100.00
13015;BME280;6573;57.696;11.950;2023-12-04T06:51:21;101788.72;;;0.40;100.00
13015;BME280;6573;57.696;11.950;2023-12-04T06:53:56;101747.66;;;-0.03;100.00
13015;BME280;6573;57.696;11.950;2023-12-04T06:56:29;101753.91;;;0.03;100.00
13015;BME280;6573;57.696;11.950;2023-12-04T06:58:59;101787.34;;;0.30;100.00
13015;BME280;6573;57.696;11.950;2023-12-04T07:01:35;101789.13;;;0.31;100.00
13015;BME280;6573;57.696;11.950;2023-12-04T07:04:19;101782.03;;;0.27;100.00
13015;BME280;6573;57.696;11.950;2023-12-04T07:07:00;101780.19;;;0.57;100.00
13015;BME280;6573;57.696;11.950;2023-12-04T07:09:32;101745.41;;;0.52;100.00
13015;BME280;6573;57.696;11.950;2023-12-04T07:12:08;101775.69;;;0.87;100.00
13015;BME280;6573;57.696;11.950;2023-12-04T07:14:38;101740.69;;;0.45;100.00
13015;BME280;6573;57.696;11.950;2023-12-04T07:17:09;101771.59;;;0.74;100.00
13015;BME280;6573;57.696;11.950;2023-12-04T07:19:41;101693.50;;;0.17;100.00
13015;BME280;6573;57.696;11.950;2023-12-04T07:22:14;101780.19;;;0.57;100.00
13015;BME280;6573;57.696;11.950;2023-12-04T07:24:46;101784.06;;;0.49;100.00
13015;BME280;6573;57.696;11.950;2023-12-04T07:27:17;101760.97;;;0.37;100.00
13015;BME280;6573;57.696;11.950;2023-12-04T07:29:47;101774.00;;;0.55;100.00
13015;BME280;6573;57.696;11.950;2023-12-04T07:32:17;101783.56;;;0.56;100.00
13015;BME280;6573;57.696;11.950;2023-12-04T07:34:50;101785.31;;;0.73;100.00
13015;BME280;6573;57.696;11.950;2023-12-04T07:37:19;101770.41;;;0.85;100.00
13015;BME280;6573;57.696;11.950;2023-12-04T07:39:50;101782.88;;;0.92;100.00
13015;BME280;6573;57.696;11.950;2023-12-04T07:42:20;101748.63;;;0.64;100.00
13015;BME280;6573;57.696;11.950;2023-12-04T07:44:51;101687.09;;;0.26;100.00
13015;BME280;6573;57.696;11.950;2023-12-04T07:47:22;101762.34;;;0.63;100.00
13015;BME280;6573;57.696;11.950;2023-12-04T07:49:52;101734.53;;;0.59;100.00
13015;BME280;6573;57.696;11.950;2023-12-04T07:52:22;101774.56;;;0.65;100.00
13015;BME280;6573;57.696;11.950;2023-12-04T07:54:57;101769.63;;;0.86;100.00
13015;BME280;6573;57.696;11.950;2023-12-04T07:57:28;101775.75;;;0.88;100.00
13015;BME280;6573;57.696;11.950;2023-12-04T08:00:00;101742.59;;;0.81;100.00
13015;BME280;6573;57.696;11.950;2023-12-04T08:02:29;101764.44;;;0.86;100.00
13015;BME280;6573;57.696;11.950;2023-12-04T08:04:58;101733.09;;;0.64;100.00
13015;BME280;6573;57.696;11.950;2023-12-04T08:07:41;101769.28;;;0.96;100.00
13015;BME280;6573;57.696;11.950;2023-12-04T08:10:14;101773.00;;;1.01;100.00
13015;BME280;6573;57.696;11.950;2023-12-04T08:12:46;101777.44;;;1.04;100.00
13015;BME280;6573;57.696;11.950;2023-12-04T08:15:18;101729.38;;;0.59;100.00
13015;BME280;6573;57.696;11.950;2023-12-04T08:17:47;101784.66;;;0.93;100.00
13015;BME280;6573;57.696;11.950;2023-12-04T08:20:18;101741.28;;;0.89;100.00
13015;BME280;6573;57.696;11.950;2023-12-04T08:23:02;101707.19;;;0.64;100.00
13015;BME280;6573;57.696;11.950;2023-12-04T08:25:30;101774.47;;;0.96;100.00
13015;BME280;6573;57.696;11.950;2023-12-04T08:28:01;101789.16;;;0.97;100.00
13015;BME280;6573;57.696;11.950;2023-12-04T08:30:31;101785.28;;;1.05;100.00
13015;BME280;6573;57.696;11.950;2023-12-04T08:33:00;101789.59;;;1.22;100.00
13015;BME280;6573;57.696;11.950;2023-12-04T08:35:30;101789.75;;;1.25;100.00
13015;BME280;6573;57.696;11.950;2023-12-04T08:38:00;101785.19;;;1.38;100.00
13015;BME280;6573;57.696;11.950;2023-12-04T08:40:29;101789.19;;;1.49;100.00
13015;BME280;6573;57.696;11.950;2023-12-04T08:43:01;101748.56;;;1.31;100.00
13015;BME280;6573;57.696;11.950;2023-12-04T08:45:31;101785.78;;;1.50;100.00
13015;BME280;6573;57.696;11.950;2023-12-04T08:48:00;101799.84;;;1.55;100.00
13015;BME280;6573;57.696;11.950;2023-12-04T08:50:31;101790.53;;;1.58;100.00
13015;BME280;6573;57.696;11.950;2023-12-04T08:53:00;101765.34;;;1.38;100.00
13015;BME280;6573;57.696;11.950;2023-12-04T08:55:29;101786.72;;;1.52;100.00
13015;BME280;6573;57.696;11.950;2023-12-04T08:57:58;101784.16;;;1.69;100.00
13015;BME280;6573;57.696;11.950;2023-12-04T09:00:28;101787.84;;;1.57;100.00
13015;BME280;6573;57.696;11.950;2023-12-04T09:02:59;101784.44;;;1.75;100.00
13015;BME280;6573;57.696;11.950;2023-12-04T09:05:36;101738.94;;;1.47;100.00
13015;BME280;6573;57.696;11.950;2023-12-04T09:08:05;101798.69;;;1.66;100.00
13015;BME280;6573;57.696;11.950;2023-12-04T09:10:37;101778.69;;;1.81;100.00
13015;BME280;6573;57.696;11.950;2023-12-04T09:13:26;101765.19;;;1.70;100.00
13015;BME280;6573;57.696;11.950;2023-12-04T09:15:57;101774.81;;;1.73;100.00
13015;BME280;6573;57.696;11.950;2023-12-04T09:18:26;101787.84;;;1.92;100.00
13015;BME280;6573;57.696;11.950;2023-12-04T09:20:54;101765.31;;;1.91;100.00
13015;BME280;6573;57.696;11.950;2023-12-04T09:23:23;101773.75;;;1.87;100.00
13015;BME280;6573;57.696;11.950;2023-12-04T09:25:54;101781.84;;;1.93;100.00
13015;BME280;6573;57.696;11.950;2023-12-04T09:28:23;101788.50;;;2.06;100.00
13015;BME280;6573;57.696;11.950;2023-12-04T09:30:51;101786.91;;;2.09;100.00
13015;BME280;6573;57.696;11.950;2023-12-04T09:33:25;101710.63;;;1.69;100.00
13015;BME280;6573;57.696;11.950;2023-12-04T09:35:54;101776.09;;;2.18;100.00
13015;BME280;6573;57.696;11.950;2023-12-04T09:38:24;101793.72;;;2.25;100.00
13015;BME280;6573;57.696;11.950;2023-12-04T09:40:55;101716.53;;;1.84;100.00
13015;BME280;6573;57.696;11.950;2023-12-04T09:43:32;101778.75;;;2.19;100.00
13015;BME280;6573;57.696;11.950;2023-12-04T09:46:01;101757.13;;;2.01;100.00
13015;BME280;6573;57.696;11.950;2023-12-04T09:48:34;101779.81;;;2.05;100.00
13015;BME280;6573;57.696;11.950;2023-12-04T09:51:15;101765.88;;;2.03;100.00
13015;BME280;6573;57.696;11.950;2023-12-04T09:53:47;101681.66;;;1.41;100.00
13015;BME280;6573;57.696;11.950;2023-12-04T09:56:23;101649.97;;;1.28;100.00
13015;BME280;6573;57.696;11.950;2023-12-04T09:58:58;101743.47;;;1.86;100.00
13015;BME280;6573;57.696;11.950;2023-12-04T10:01:28;101765.75;;;2.00;100.00
13015;BME280;6573;57.696;11.950;2023-12-04T10:04:02;101784.09;;;2.22;100.00
13015;BME280;6573;57.696;11.950;2023-12-04T10:06:32;101771.19;;;2.06;100.00
13015;BME280;6573;57.696;11.950;2023-12-04T10:09:02;101760.38;;;2.15;100.00
13015;BME280;6573;57.696;11.950;2023-12-04T10:11:30;101775.03;;;2.14;100.00
13015;BME280;6573;57.696;11.950;2023-12-04T10:14:14;101759.31;;;2.11;100.00
13015;BME280;6573;57.696;11.950;2023-12-04T10:16:44;101770.56;;;2.29;100.00
13015;BME280;6573;57.696;11.950;2023-12-04T10:19:22;101773.84;;;2.44;100.00
13015;BME280;6573;57.696;11.950;2023-12-04T10:21:55;101747.31;;;2.51;100.00
13015;BME280;6573;57.696;11.950;2023-12-04T10:24:29;101777.13;;;2.59;100.00
13015;BME280;6573;57.696;11.950;2023-12-04T10:26:58;101775.34;;;2.58;100.00
13015;BME280;6573;57.696;11.950;2023-12-04T10:29:28;101723.00;;;2.49;100.00
13015;BME280;6573;57.696;11.950;2023-12-04T10:32:01;101758.25;;;2.63;100.00
13015;BME280;6573;57.696;11.950;2023-12-04T10:34:35;101774.53;;;2.59;100.00
13015;BME280;6573;57.696;11.950;2023-12-04T10:37:05;101754.47;;;2.55;100.00
13015;BME280;6573;57.696;11.950;2023-12-04T10:39:45;101752.28;;;2.45;100.00
13015;BME280;6573;57.696;11.950;2023-12-04T10:42:26;101773.44;;;2.54;100.00
13015;BME280;6573;57.696;11.950;2023-12-04T10:45:11;101746.09;;;2.63;100.00
13015;BME280;6573;57.696;11.950;2023-12-04T10:47:41;101753.19;;;2.67;100.00
13015;BME280;6573;57.696;11.950;2023-12-04T10:50:15;101758.41;;;2.67;100.00
13015;BME280;6573;57.696;11.950;2023-12-04T10:52:44;101749.22;;;2.75;100.00
13015;BME280;6573;57.696;11.950;2023-12-04T10:55:16;101752.72;;;2.75;100.00
13015;BME280;6573;57.696;11.950;2023-12-04T10:57:45;101748.28;;;2.73;100.00
13015;BME280;6573;57.696;11.950;2023-12-04T11:00:17;101752.06;;;2.81;100.00
13015;BME280;6573;57.696;11.950;2023-12-04T11:02:47;101741.97;;;2.87;100.00
13015;BME280;6573;57.696;11.950;2023-12-04T11:05:19;101743.28;;;2.98;100.00
13015;BME280;6573;57.696;11.950;2023-12-04T11:07:51;101742.47;;;2.99;100.00
13015;BME280;6573;57.696;11.950;2023-12-04T11:10:46;101758.88;;;2.98;100.00
13015;BME280;6573;57.696;11.950;2023-12-04T11:13:22;101687.69;;;2.74;100.00
13015;BME280;6573;57.696;11.950;2023-12-04T11:15:52;101755.56;;;3.21;100.00
13015;BME280;6573;57.696;11.950;2023-12-04T11:18:27;101744.50;;;3.06;100.00
13015;BME280;6573;57.696;11.950;2023-12-04T11:21:05;101757.34;;;3.22;100.00
13015;BME280;6573;57.696;11.950;2023-12-04T11:23:38;101718.00;;;2.94;100.00
13015;BME280;6573;57.696;11.950;2023-12-04T11:26:08;101746.53;;;3.13;100.00
13015;BME280;6573;57.696;11.950;2023-12-04T11:28:38;101755.19;;;3.12;100.00
13015;BME280;6573;57.696;11.950;2023-12-04T11:31:08;101742.75;;;3.05;100.00
13015;BME280;6573;57.696;11.950;2023-12-04T11:33:38;101746.53;;;3.13;100.00
13015;BME280;6573;57.696;11.950;2023-12-04T11:36:11;101655.06;;;2.59;100.00
13015;BME280;6573;57.696;11.950;2023-12-04T11:38:44;101736.28;;;3.16;100.00
13015;BME280;6573;57.696;11.950;2023-12-04T11:41:15;101755.59;;;3.43;100.00
13015;BME280;6573;57.696;11.950;2023-12-04T11:43:50;101745.53;;;3.30;100.00
13015;BME280;6573;57.696;11.950;2023-12-04T11:46:20;101741.75;;;3.22;100.00
13015;BME280;6573;57.696;11.950;2023-12-04T11:48:54;101709.78;;;3.04;100.00
13015;BME280;6573;57.696;11.950;2023-12-04T11:51:47;101742.09;;;3.31;100.00
13015;BME280;6573;57.696;11.950;2023-12-04T11:54:22;101688.28;;;3.08;100.00
13015;BME280;6573;57.696;11.950;2023-12-04T11:56:58;101729.28;;;3.36;100.00
13015;BME280;6573;57.696;11.950;2023-12-04T11:59:27;101722.56;;;3.41;100.00
13015;BME280;6573;57.696;11.950;2023-12-04T12:01:58;101667.78;;;3.15;100.00
13015;BME280;6573;57.696;11.950;2023-12-04T12:04:27;101726.63;;;3.34;100.00
13015;BME280;6573;57.696;11.950;2023-12-04T12:07:05;101715.34;;;3.34;100.00
13015;BME280;6573;57.696;11.950;2023-12-04T12:09:35;101704.31;;;3.39;100.00
13015;BME280;6573;57.696;11.950;2023-12-04T12:12:18;101724.47;;;3.45;100.00
13015;BME280;6573;57.696;11.950;2023-12-04T12:14:48;101670.22;;;3.11;100.00
13015;BME280;6573;57.696;11.950;2023-12-04T12:17:18;101719.50;;;3.30;100.00
13015;BME280;6573;57.696;11.950;2023-12-04T12:19:45;101715.03;;;3.26;100.00
13015;BME280;6573;57.696;11.950;2023-12-04T12:22:18;101712.16;;;3.41;100.00
13015;BME280;6573;57.696;11.950;2023-12-04T12:24:47;101684.06;;;3.10;100.00
13015;BME280;6573;57.696;11.950;2023-12-04T12:27:17;101701.72;;;3.39;100.00
13015;BME280;6573;57.696;11.950;2023-12-04T12:29:48;101682.59;;;3.39;100.00
13015;BME280;6573;57.696;11.950;2023-12-04T12:32:17;101704.78;;;3.51;100.00
13015;BME280;6573;57.696;11.950;2023-12-04T12:34:46;101669.84;;;3.22;100.00
13015;BME280;6573;57.696;11.950;2023-12-04T12:37:18;101686.44;;;3.26;100.00
13015;BME280;6573;57.696;11.950;2023-12-04T12:39:47;101703.22;;;3.34;100.00
13015;BME280;6573;57.696;11.950;2023-12-04T12:42:21;101681.72;;;3.38;100.00
13015;BME280;6573;57.696;11.950;2023-12-04T12:44:52;101692.59;;;3.50;100.00
13015;BME280;6573;57.696;11.950;2023-12-04T12:47:26;101667.78;;;3.36;100.00
13015;BME280;6573;57.696;11.950;2023-12-04T12:49:55;101692.09;;;3.59;100.00
13015;BME280;6573;57.696;11.950;2023-12-04T12:52:29;101641.59;;;3.32;100.00
13015;BME280;6573;57.696;11.950;2023-12-04T12:55:00;101659.38;;;3.43;100.00
13015;BME280;6573;57.696;11.950;2023-12-04T12:57:33;101606.69;;;3.04;100.00
13015;BME280;6573;57.696;11.950;2023-12-04T13:00:06;101687.66;;;3.56;100.00
13015;BME280;6573;57.696;11.950;2023-12-04T13:02:37;101667.78;;;3.36;100.00
13015;BME280;6573;57.696;11.950;2023-12-04T13:05:06;101640.81;;;3.34;100.00
13015;BME280;6573;57.696;11.950;2023-12-04T13:07:42;101687.66;;;3.56;100.00
13015;BME280;6573;57.696;11.950;2023-12-04T13:10:13;101695.28;;;3.52;100.00
13015;BME280;6573;57.696;11.950;2023-12-04T13:12:42;101595.06;;;2.95;100.00
13015;BME280;6573;57.696;11.950;2023-12-04T13:15:11;101678.84;;;3.10;100.00
13015;BME280;6573;57.696;11.950;2023-12-04T13:17:40;101686.28;;;3.23;100.00
13015;BME280;6573;57.696;11.950;2023-12-04T13:20:23;101685.38;;;3.43;100.00
13015;BME280;6573;57.696;11.950;2023-12-04T13:22:56;101673.72;;;3.54;100.00
13015;BME280;6573;57.696;11.950;2023-12-04T13:25:24;101677.47;;;3.62;100.00
13015;BME280;6573;57.696;11.950;2023-12-04T13:27:56;101657.97;;;3.51;100.00